sensor_id;sensor_type;location;lat;lon;timestamp;P1;durP1;ratioP1;P2;durP2;ratioP2
73136;SDS011;67767;45.636;11.756;2023-04-06T00:00:53;18.17;;;9.83;;
73136;SDS011;67767;45.636;11.756;2023-04-06T00:03:18;18.75;;;9.30;;
73136;SDS011;67767;45.636;11.756;2023-04-06T00:05:44;18.10;;;9.00;;
73136;SDS011;67767;45.636;11.756;2023-04-06T00:08:11;20.58;;;9.60;;
73136;SDS011;67767;45.636;11.756;2023-04-06T00:10:37;17.33;;;9.40;;
73136;SDS011;67767;45.636;11.756;2023-04-06T00:13:03;17.55;;;9.40;;
73136;SDS011;67767;45.636;11.756;2023-04-06T00:15:30;18.55;;;10.75;;
73136;SDS011;67767;45.636;11.756;2023-04-06T00:17:55;20.30;;;10.83;;
73136;SDS011;67767;45.636;11.756;2023-04-06T00:20:21;22.70;;;11.93;;
73136;SDS011;67767;45.636;11.756;2023-04-06T00:22:47;21.10;;;11.33;;
73136;SDS011;67767;45.636;11.756;2023-04-06T00:25:12;19.92;;;11.30;;
73136;SDS011;67767;45.636;11.756;2023-04-06T00:27:40;19.48;;;11.10;;
73136;SDS011;67767;45.636;11.756;2023-04-06T00:30:06;20.53;;;11.27;;
73136;SDS011;67767;45.636;11.756;2023-04-06T00:32:33;20.67;;;11.07;;
73136;SDS011;67767;45.636;11.756;2023-04-06T00:34:59;19.70;;;11.40;;
73136;SDS011;67767;45.636;11.756;2023-04-06T00:37:26;19.92;;;11.40;;
73136;SDS011;67767;45.636;11.756;2023-04-06T00:39:52;25.27;;;12.27;;
73136;SDS011;67767;45.636;11.756;2023-04-06T00:42:18;21.60;;;11.02;;
73136;SDS011;67767;45.636;11.756;2023-04-06T00:44:50;21.17;;;11.47;;
73136;SDS011;67767;45.636;11.756;2023-04-06T00:47:17;20.80;;;12.20;;
73136;SDS011;67767;45.636;11.756;2023-04-06T00:49:43;20.77;;;10.95;;
73136;SDS011;67767;45.636;11.756;2023-04-06T00:52:08;19.10;;;11.70;;
73136;SDS011;67767;45.636;11.756;2023-04-06T00:54:34;23.42;;;13.23;;
73136;SDS011;67767;45.636;11.756;2023-04-06T00:57:00;25.13;;;12.93;;
73136;SDS011;67767;45.636;11.756;2023-04-06T00:59:26;20.95;;;12.32;;
73136;SDS011;67767;45.636;11.756;2023-04-06T01:01:53;19.77;;;11.90;;
73136;SDS011;67767;45.636;11.756;2023-04-06T01:04:19;22.13;;;11.73;;
73136;SDS011;67767;45.636;11.756;2023-04-06T01:06:45;22.05;;;12.60;;
73136;SDS011;67767;45.636;11.756;2023-04-06T01:09:10;24.20;;;12.87;;
73136;SDS011;67767;45.636;11.756;2023-04-06T01:11:36;26.90;;;13.93;;
73136;SDS011;67767;45.636;11.756;2023-04-06T01:14:02;21.73;;;12.27;;
73136;SDS011;67767;45.636;11.756;2023-04-06T01:16:28;21.85;;;12.13;;
73136;SDS011;67767;45.636;11.756;2023-04-06T01:18:54;26.48;;;17.17;;
73136;SDS011;67767;45.636;11.756;2023-04-06T01:21:20;23.33;;;12.37;;
73136;SDS011;67767;45.636;11.756;2023-04-06T01:23:46;24.63;;;12.23;;
73136;SDS011;67767;45.636;11.756;2023-04-06T01:26:12;23.33;;;12.83;;
73136;SDS011;67767;45.636;11.756;2023-04-06T01:28:38;23.40;;;12.85;;
73136;SDS011;67767;45.636;11.756;2023-04-06T01:31:06;25.45;;;13.27;;
73136;SDS011;67767;45.636;11.756;2023-04-06T01:33:32;22.45;;;11.82;;
73136;SDS011;67767;45.636;11.756;2023-04-06T01:35:58;18.63;;;10.60;;
73136;SDS011;67767;45.636;11.756;2023-04-06T01:38:24;20.42;;;12.18;;
73136;SDS011;67767;45.636;11.756;2023-04-06T01:40:51;18.02;;;11.40;;
73136;SDS011;67767;45.636;11.756;2023-04-06T01:43:17;22.83;;;11.73;;
73136;SDS011;67767;45.636;11.756;2023-04-06T01:45:43;20.00;;;10.67;;
73136;SDS011;67767;45.636;11.756;2023-04-06T01:48:08;20.15;;;10.80;;
73136;SDS011;67767;45.636;11.756;2023-04-06T01:50:34;17.27;;;10.60;;
73136;SDS011;67767;45.636;11.756;2023-04-06T01:53:00;18.67;;;10.70;;
73136;SDS011;67767;45.636;11.756;2023-04-06T01:55:25;17.50;;;10.57;;
73136;SDS011;67767;45.636;11.756;2023-04-06T01:57:51;19.10;;;10.63;;
73136;SDS011;67767;45.636;11.756;2023-04-06T02:00:17;18.77;;;9.80;;
73136;SDS011;67767;45.636;11.756;2023-04-06T02:02:42;19.85;;;11.52;;
73136;SDS011;67767;45.636;11.756;2023-04-06T02:05:08;21.27;;;9.63;;
73136;SDS011;67767;45.636;11.756;2023-04-06T02:07:34;16.60;;;9.07;;
73136;SDS011;67767;45.636;11.756;2023-04-06T02:10:00;16.80;;;9.73;;
73136;SDS011;67767;45.636;11.756;2023-04-06T02:12:25;15.50;;;9.20;;
73136;SDS011;67767;45.636;11.756;2023-04-06T02:14:51;17.33;;;9.20;;
73136;SDS011;67767;45.636;11.756;2023-04-06T02:17:17;13.93;;;8.75;;
73136;SDS011;67767;45.636;11.756;2023-04-06T02:19:42;16.33;;;9.03;;
73136;SDS011;67767;45.636;11.756;2023-04-06T02:22:09;17.35;;;9.48;;
73136;SDS011;67767;45.636;11.756;2023-04-06T02:24:34;15.50;;;8.18;;
73136;SDS011;67767;45.636;11.756;2023-04-06T02:27:00;15.30;;;8.67;;
73136;SDS011;67767;45.636;11.756;2023-04-06T02:29:26;15.43;;;9.20;;
73136;SDS011;67767;45.636;11.756;2023-04-06T02:31:52;16.97;;;8.90;;
73136;SDS011;67767;45.636;11.756;2023-04-06T02:34:17;17.00;;;9.23;;
73136;SDS011;67767;45.636;11.756;2023-04-06T02:36:44;15.77;;;9.40;;
73136;SDS011;67767;45.636;11.756;2023-04-06T02:39:10;19.50;;;9.57;;
73136;SDS011;67767;45.636;11.756;2023-04-06T02:41:36;17.08;;;9.43;;
73136;SDS011;67767;45.636;11.756;2023-04-06T02:44:02;17.10;;;9.17;;
73136;SDS011;67767;45.636;11.756;2023-04-06T02:46:28;16.92;;;8.98;;
73136;SDS011;67767;45.636;11.756;2023-04-06T02:48:54;20.95;;;10.32;;
73136;SDS011;67767;45.636;11.756;2023-04-06T02:51:21;15.38;;;9.25;;
73136;SDS011;67767;45.636;11.756;2023-04-06T02:53:46;15.90;;;8.47;;
73136;SDS011;67767;45.636;11.756;2023-04-06T02:56:12;16.30;;;8.40;;
73136;SDS011;67767;45.636;11.756;2023-04-06T02:58:38;20.57;;;9.20;;
73136;SDS011;67767;45.636;11.756;2023-04-06T03:01:04;18.30;;;8.88;;
73136;SDS011;67767;45.636;11.756;2023-04-06T03:03:29;17.33;;;8.37;;
73136;SDS011;67767;45.636;11.756;2023-04-06T03:05:55;16.83;;;8.55;;
73136;SDS011;67767;45.636;11.756;2023-04-06T03:08:23;15.43;;;8.38;;
73136;SDS011;67767;45.636;11.756;2023-04-06T03:10:49;16.17;;;7.87;;
73136;SDS011;67767;45.636;11.756;2023-04-06T03:13:15;14.98;;;8.18;;
73136;SDS011;67767;45.636;11.756;2023-04-06T03:15:41;17.08;;;8.20;;
73136;SDS011;67767;45.636;11.756;2023-04-06T03:18:07;17.37;;;8.10;;
73136;SDS011;67767;45.636;11.756;2023-04-06T03:20:32;16.10;;;7.63;;
73136;SDS011;67767;45.636;11.756;2023-04-06T03:22:58;15.50;;;7.67;;
73136;SDS011;67767;45.636;11.756;2023-04-06T03:25:24;15.32;;;7.63;;
73136;SDS011;67767;45.636;11.756;2023-04-06T03:27:49;21.27;;;11.93;;
73136;SDS011;67767;45.636;11.756;2023-04-06T03:30:15;15.13;;;7.85;;
73136;SDS011;67767;45.636;11.756;2023-04-06T03:32:42;15.98;;;8.20;;
73136;SDS011;67767;45.636;11.756;2023-04-06T03:35:09;19.27;;;9.30;;
73136;SDS011;67767;45.636;11.756;2023-04-06T03:37:35;21.38;;;8.48;;
73136;SDS011;67767;45.636;11.756;2023-04-06T03:40:01;18.40;;;9.30;;
73136;SDS011;67767;45.636;11.756;2023-04-06T03:42:28;18.73;;;7.40;;
73136;SDS011;67767;45.636;11.756;2023-04-06T03:44:53;19.63;;;8.33;;
73136;SDS011;67767;45.636;11.756;2023-04-06T03:47:19;17.27;;;8.00;;
73136;SDS011;67767;45.636;11.756;2023-04-06T03:49:45;17.95;;;7.68;;
73136;SDS011;67767;45.636;11.756;2023-04-06T03:52:11;16.93;;;7.00;;
73136;SDS011;67767;45.636;11.756;2023-04-06T03:54:36;17.38;;;7.72;;
73136;SDS011;67767;45.636;11.756;2023-04-06T03:57:02;15.63;;;8.83;;
73136;SDS011;67767;45.636;11.756;2023-04-06T03:59:28;18.75;;;8.57;;
73136;SDS011;67767;45.636;11.756;2023-04-06T04:01:54;18.05;;;8.77;;
73136;SDS011;67767;45.636;11.756;2023-04-06T04:04:20;20.03;;;8.87;;
73136;SDS011;67767;45.636;11.756;2023-04-06T04:06:46;15.57;;;8.32;;
73136;SDS011;67767;45.636;11.756;2023-04-06T04:09:12;16.30;;;8.47;;
73136;SDS011;67767;45.636;11.756;2023-04-06T04:11:38;17.10;;;8.90;;
73136;SDS011;67767;45.636;11.756;2023-04-06T04:14:03;14.50;;;8.60;;
73136;SDS011;67767;45.636;11.756;2023-04-06T04:16:29;18.70;;;9.03;;
73136;SDS011;67767;45.636;11.756;2023-04-06T04:18:55;21.02;;;10.00;;
73136;SDS011;67767;45.636;11.756;2023-04-06T04:21:23;23.10;;;10.90;;
73136;SDS011;67767;45.636;11.756;2023-04-06T04:23:48;15.83;;;9.63;;
73136;SDS011;67767;45.636;11.756;2023-04-06T04:26:14;22.80;;;10.60;;
73136;SDS011;67767;45.636;11.756;2023-04-06T04:28:40;23.03;;;11.27;;
73136;SDS011;67767;45.636;11.756;2023-04-06T04:31:06;20.10;;;10.70;;
73136;SDS011;67767;45.636;11.756;2023-04-06T04:33:31;20.93;;;10.77;;
73136;SDS011;67767;45.636;11.756;2023-04-06T04:35:57;20.15;;;10.65;;
73136;SDS011;67767;45.636;11.756;2023-04-06T04:38:23;21.23;;;10.57;;
73136;SDS011;67767;45.636;11.756;2023-04-06T04:40:48;20.23;;;10.35;;
73136;SDS011;67767;45.636;11.756;2023-04-06T04:43:14;23.53;;;10.83;;
73136;SDS011;67767;45.636;11.756;2023-04-06T04:45:40;20.60;;;10.85;;
73136;SDS011;67767;45.636;11.756;2023-04-06T04:48:05;23.00;;;11.80;;
73136;SDS011;67767;45.636;11.756;2023-04-06T04:50:32;19.77;;;10.85;;
73136;SDS011;67767;45.636;11.756;2023-04-06T04:52:58;17.73;;;10.67;;
73136;SDS011;67767;45.636;11.756;2023-04-06T04:55:24;20.60;;;10.38;;
73136;SDS011;67767;45.636;11.756;2023-04-06T04:57:49;16.93;;;9.83;;
73136;SDS011;67767;45.636;11.756;2023-04-06T05:00:15;16.05;;;9.27;;
73136;SDS011;67767;45.636;11.756;2023-04-06T05:02:41;19.43;;;9.77;;
73136;SDS011;67767;45.636;11.756;2023-04-06T05:05:06;21.03;;;10.37;;
73136;SDS011;67767;45.636;11.756;2023-04-06T05:07:32;20.75;;;10.07;;
73136;SDS011;67767;45.636;11.756;2023-04-06T05:09:58;24.30;;;10.73;;
73136;SDS011;67767;45.636;11.756;2023-04-06T05:12:24;18.53;;;10.60;;
73136;SDS011;67767;45.636;11.756;2023-04-06T05:14:51;20.00;;;10.30;;
73136;SDS011;67767;45.636;11.756;2023-04-06T05:17:18;18.42;;;9.50;;
73136;SDS011;67767;45.636;11.756;2023-04-06T05:19:44;21.27;;;9.73;;
73136;SDS011;67767;45.636;11.756;2023-04-06T05:22:10;18.40;;;9.90;;
73136;SDS011;67767;45.636;11.756;2023-04-06T05:24:36;18.30;;;10.40;;
73136;SDS011;67767;45.636;11.756;2023-04-06T05:27:02;17.13;;;9.70;;
73136;SDS011;67767;45.636;11.756;2023-04-06T05:29:28;19.02;;;9.93;;
73136;SDS011;67767;45.636;11.756;2023-04-06T05:31:54;17.27;;;9.55;;
73136;SDS011;67767;45.636;11.756;2023-04-06T05:34:20;16.70;;;9.33;;
73136;SDS011;67767;45.636;11.756;2023-04-06T05:36:46;16.25;;;9.18;;
73136;SDS011;67767;45.636;11.756;2023-04-06T05:39:12;16.30;;;9.00;;
73136;SDS011;67767;45.636;11.756;2023-04-06T05:41:38;17.35;;;9.00;;
73136;SDS011;67767;45.636;11.756;2023-04-06T05:44:03;16.33;;;9.48;;
73136;SDS011;67767;45.636;11.756;2023-04-06T05:46:29;18.70;;;9.27;;
73136;SDS011;67767;45.636;11.756;2023-04-06T05:48:55;19.60;;;9.35;;
73136;SDS011;67767;45.636;11.756;2023-04-06T05:51:21;18.67;;;9.10;;
73136;SDS011;67767;45.636;11.756;2023-04-06T05:53:46;18.80;;;9.75;;
73136;SDS011;67767;45.636;11.756;2023-04-06T05:56:12;15.80;;;8.60;;
73136;SDS011;67767;45.636;11.756;2023-04-06T05:58:38;16.05;;;9.07;;
73136;SDS011;67767;45.636;11.756;2023-04-06T06:01:03;14.83;;;9.03;;
73136;SDS011;67767;45.636;11.756;2023-04-06T06:03:29;16.13;;;8.45;;
73136;SDS011;67767;45.636;11.756;2023-04-06T06:05:59;17.10;;;8.20;;
73136;SDS011;67767;45.636;11.756;2023-04-06T06:08:28;17.70;;;8.77;;
73136;SDS011;67767;45.636;11.756;2023-04-06T06:10:55;17.70;;;8.90;;
73136;SDS011;67767;45.636;11.756;2023-04-06T06:13:21;22.98;;;9.57;;
73136;SDS011;67767;45.636;11.756;2023-04-06T06:15:47;17.50;;;8.85;;
73136;SDS011;67767;45.636;11.756;2023-04-06T06:18:13;18.88;;;10.77;;
73136;SDS011;67767;45.636;11.756;2023-04-06T06:20:39;19.40;;;8.90;;
73136;SDS011;67767;45.636;11.756;2023-04-06T06:23:05;18.80;;;9.70;;
73136;SDS011;67767;45.636;11.756;2023-04-06T06:25:30;18.37;;;8.73;;
73136;SDS011;67767;45.636;11.756;2023-04-06T06:27:57;17.13;;;8.60;;
73136;SDS011;67767;45.636;11.756;2023-04-06T06:30:22;18.98;;;8.50;;
73136;SDS011;67767;45.636;11.756;2023-04-06T06:32:49;17.03;;;9.03;;
73136;SDS011;67767;45.636;11.756;2023-04-06T06:35:15;19.65;;;8.75;;
73136;SDS011;67767;45.636;11.756;2023-04-06T06:37:41;16.75;;;8.48;;
73136;SDS011;67767;45.636;11.756;2023-04-06T06:40:08;13.90;;;7.63;;
73136;SDS011;67767;45.636;11.756;2023-04-06T06:42:35;17.65;;;7.70;;
73136;SDS011;67767;45.636;11.756;2023-04-06T06:45:01;20.67;;;8.07;;
73136;SDS011;67767;45.636;11.756;2023-04-06T06:47:27;19.80;;;8.30;;
73136;SDS011;67767;45.636;11.756;2023-04-06T06:49:52;14.93;;;7.32;;
73136;SDS011;67767;45.636;11.756;2023-04-06T06:52:18;18.23;;;7.23;;
73136;SDS011;67767;45.636;11.756;2023-04-06T06:54:44;16.00;;;7.05;;
73136;SDS011;67767;45.636;11.756;2023-04-06T06:57:09;11.27;;;6.50;;
73136;SDS011;67767;45.636;11.756;2023-04-06T06:59:35;12.88;;;5.10;;
73136;SDS011;67767;45.636;11.756;2023-04-06T07:02:01;12.33;;;5.50;;
73136;SDS011;67767;45.636;11.756;2023-04-06T07:04:26;8.27;;;4.87;;
73136;SDS011;67767;45.636;11.756;2023-04-06T07:06:52;11.90;;;4.95;;
73136;SDS011;67767;45.636;11.756;2023-04-06T07:09:18;13.33;;;5.03;;
73136;SDS011;67767;45.636;11.756;2023-04-06T07:11:44;13.57;;;4.90;;
73136;SDS011;67767;45.636;11.756;2023-04-06T07:14:09;11.57;;;6.07;;
73136;SDS011;67767;45.636;11.756;2023-04-06T07:16:36;12.63;;;5.17;;
73136;SDS011;67767;45.636;11.756;2023-04-06T07:19:02;15.35;;;5.53;;
73136;SDS011;67767;45.636;11.756;2023-04-06T07:21:28;14.82;;;5.20;;
73136;SDS011;67767;45.636;11.756;2023-04-06T07:23:54;10.67;;;4.57;;
73136;SDS011;67767;45.636;11.756;2023-04-06T07:26:19;11.90;;;5.55;;
73136;SDS011;67767;45.636;11.756;2023-04-06T07:28:45;10.48;;;5.60;;
73136;SDS011;67767;45.636;11.756;2023-04-06T07:31:11;13.47;;;5.47;;
73136;SDS011;67767;45.636;11.756;2023-04-06T07:33:37;10.52;;;5.18;;
73136;SDS011;67767;45.636;11.756;2023-04-06T07:36:03;9.47;;;4.60;;
73136;SDS011;67767;45.636;11.756;2023-04-06T07:38:29;10.90;;;5.20;;
73136;SDS011;67767;45.636;11.756;2023-04-06T07:40:55;10.07;;;4.68;;
73136;SDS011;67767;45.636;11.756;2023-04-06T07:43:20;9.17;;;4.20;;
73136;SDS011;67767;45.636;11.756;2023-04-06T07:45:46;13.32;;;4.60;;
73136;SDS011;67767;45.636;11.756;2023-04-06T07:48:12;9.80;;;4.20;;
73136;SDS011;67767;45.636;11.756;2023-04-06T07:50:38;9.32;;;3.63;;
73136;SDS011;67767;45.636;11.756;2023-04-06T07:53:04;9.80;;;4.40;;
73136;SDS011;67767;45.636;11.756;2023-04-06T07:55:30;11.30;;;4.40;;
73136;SDS011;67767;45.636;11.756;2023-04-06T07:57:56;10.65;;;4.60;;
73136;SDS011;67767;45.636;11.756;2023-04-06T08:00:22;8.70;;;4.07;;
73136;SDS011;67767;45.636;11.756;2023-04-06T08:02:47;11.67;;;4.23;;
73136;SDS011;67767;45.636;11.756;2023-04-06T08:05:13;10.53;;;5.10;;
73136;SDS011;67767;45.636;11.756;2023-04-06T08:07:39;12.30;;;4.88;;
73136;SDS011;67767;45.636;11.756;2023-04-06T08:10:05;13.10;;;5.07;;
73136;SDS011;67767;45.636;11.756;2023-04-06T08:12:31;9.93;;;4.93;;
73136;SDS011;67767;45.636;11.756;2023-04-06T08:14:57;15.45;;;5.32;;
73136;SDS011;67767;45.636;11.756;2023-04-06T08:17:24;10.93;;;4.30;;
73136;SDS011;67767;45.636;11.756;2023-04-06T08:19:50;14.02;;;4.57;;
73136;SDS011;67767;45.636;11.756;2023-04-06T08:22:16;12.43;;;4.57;;
73136;SDS011;67767;45.636;11.756;2023-04-06T08:24:42;13.32;;;4.75;;
73136;SDS011;67767;45.636;11.756;2023-04-06T08:27:08;11.27;;;4.90;;
73136;SDS011;67767;45.636;11.756;2023-04-06T08:29:34;9.50;;;4.20;;
73136;SDS011;67767;45.636;11.756;2023-04-06T08:31:59;10.53;;;4.07;;
73136;SDS011;67767;45.636;11.756;2023-04-06T08:34:28;13.23;;;4.70;;
73136;SDS011;67767;45.636;11.756;2023-04-06T08:36:53;14.03;;;6.47;;
73136;SDS011;67767;45.636;11.756;2023-04-06T08:39:19;11.00;;;4.57;;
73136;SDS011;67767;45.636;11.756;2023-04-06T08:41:50;10.30;;;4.00;;
73136;SDS011;67767;45.636;11.756;2023-04-06T08:44:17;10.63;;;3.70;;
73136;SDS011;67767;45.636;11.756;2023-04-06T08:46:43;11.33;;;4.73;;
73136;SDS011;67767;45.636;11.756;2023-04-06T08:49:09;10.18;;;4.32;;
73136;SDS011;67767;45.636;11.756;2023-04-06T08:51:37;12.95;;;4.30;;
73136;SDS011;67767;45.636;11.756;2023-04-06T08:54:03;10.82;;;4.30;;
73136;SDS011;67767;45.636;11.756;2023-04-06T08:56:30;9.38;;;4.03;;
73136;SDS011;67767;45.636;11.756;2023-04-06T08:58:56;9.90;;;3.70;;
73136;SDS011;67767;45.636;11.756;2023-04-06T09:01:23;11.35;;;4.28;;
73136;SDS011;67767;45.636;11.756;2023-04-06T09:03:55;13.27;;;4.80;;
73136;SDS011;67767;45.636;11.756;2023-04-06T09:06:22;9.60;;;4.13;;
73136;SDS011;67767;45.636;11.756;2023-04-06T09:08:48;10.03;;;4.47;;
73136;SDS011;67767;45.636;11.756;2023-04-06T09:11:14;10.10;;;4.20;;
73136;SDS011;67767;45.636;11.756;2023-04-06T09:13:50;8.50;;;4.47;;
73136;SDS011;67767;45.636;11.756;2023-04-06T09:16:17;11.00;;;5.00;;
73136;SDS011;67767;45.636;11.756;2023-04-06T09:18:43;13.30;;;4.97;;
73136;SDS011;67767;45.636;11.756;2023-04-06T09:21:10;10.20;;;4.93;;
73136;SDS011;67767;45.636;11.756;2023-04-06T09:23:36;11.93;;;4.57;;
73136;SDS011;67767;45.636;11.756;2023-04-06T09:31:15;10.80;;;5.10;;
73136;SDS011;67767;45.636;11.756;2023-04-06T09:33:44;9.35;;;4.97;;
73136;SDS011;67767;45.636;11.756;2023-04-06T09:36:10;10.65;;;5.63;;
73136;SDS011;67767;45.636;11.756;2023-04-06T09:38:50;9.88;;;4.80;;
73136;SDS011;67767;45.636;11.756;2023-04-06T09:44:06;10.80;;;5.17;;
73136;SDS011;67767;45.636;11.756;2023-04-06T09:49:06;10.45;;;5.32;;
73136;SDS011;67767;45.636;11.756;2023-04-06T09:51:36;11.80;;;6.07;;
73136;SDS011;67767;45.636;11.756;2023-04-06T09:54:18;12.05;;;6.35;;
73136;SDS011;67767;45.636;11.756;2023-04-06T09:56:46;10.57;;;5.10;;
73136;SDS011;67767;45.636;11.756;2023-04-06T10:01:53;11.32;;;4.35;;
73136;SDS011;67767;45.636;11.756;2023-04-06T10:04:40;11.10;;;5.03;;
73136;SDS011;67767;45.636;11.756;2023-04-06T10:07:08;15.88;;;6.25;;
73136;SDS011;67767;45.636;11.756;2023-04-06T10:09:36;11.27;;;5.93;;
73136;SDS011;67767;45.636;11.756;2023-04-06T10:12:05;11.70;;;5.85;;
73136;SDS011;67767;45.636;11.756;2023-04-06T10:14:34;13.73;;;6.05;;
73136;SDS011;67767;45.636;11.756;2023-04-06T10:17:02;10.80;;;5.30;;
73136;SDS011;67767;45.636;11.756;2023-04-06T10:19:36;11.40;;;6.10;;
73136;SDS011;67767;45.636;11.756;2023-04-06T10:22:26;10.43;;;5.70;;
73136;SDS011;67767;45.636;11.756;2023-04-06T10:25:07;9.90;;;5.50;;
73136;SDS011;67767;45.636;11.756;2023-04-06T10:27:33;10.52;;;5.68;;
73136;SDS011;67767;45.636;11.756;2023-04-06T10:30:03;12.70;;;5.90;;
73136;SDS011;67767;45.636;11.756;2023-04-06T10:32:34;13.02;;;5.75;;
73136;SDS011;67767;45.636;11.756;2023-04-06T10:35:06;10.18;;;5.70;;
73136;SDS011;67767;45.636;11.756;2023-04-06T10:37:45;14.68;;;5.90;;
73136;SDS011;67767;45.636;11.756;2023-04-06T10:40:18;14.63;;;6.53;;
73136;SDS011;67767;45.636;11.756;2023-04-06T10:42:51;11.33;;;6.40;;
73136;SDS011;67767;45.636;11.756;2023-04-06T10:45:20;11.90;;;6.18;;
73136;SDS011;67767;45.636;11.756;2023-04-06T10:47:47;13.13;;;7.47;;
73136;SDS011;67767;45.636;11.756;2023-04-06T10:50:14;12.60;;;6.82;;
73136;SDS011;67767;45.636;11.756;2023-04-06T10:52:41;14.10;;;6.67;;
73136;SDS011;67767;45.636;11.756;2023-04-06T10:55:08;15.82;;;7.20;;
73136;SDS011;67767;45.636;11.756;2023-04-06T10:57:37;15.10;;;7.72;;
73136;SDS011;67767;45.636;11.756;2023-04-06T11:00:06;11.30;;;6.18;;
73136;SDS011;67767;45.636;11.756;2023-04-06T11:02:35;10.93;;;6.80;;
73136;SDS011;67767;45.636;11.756;2023-04-06T11:05:03;14.32;;;6.30;;
73136;SDS011;67767;45.636;11.756;2023-04-06T11:07:29;15.43;;;7.70;;
73136;SDS011;67767;45.636;11.756;2023-04-06T11:09:55;10.45;;;6.90;;
73136;SDS011;67767;45.636;11.756;2023-04-06T11:12:24;14.15;;;6.90;;
73136;SDS011;67767;45.636;11.756;2023-04-06T11:15:01;13.20;;;6.83;;
73136;SDS011;67767;45.636;11.756;2023-04-06T11:17:34;12.05;;;7.18;;
73136;SDS011;67767;45.636;11.756;2023-04-06T11:20:01;12.32;;;6.85;;
73136;SDS011;67767;45.636;11.756;2023-04-06T11:22:28;15.43;;;7.30;;
73136;SDS011;67767;45.636;11.756;2023-04-06T11:25:07;12.60;;;7.10;;
73136;SDS011;67767;45.636;11.756;2023-04-06T11:27:34;11.00;;;6.97;;
73136;SDS011;67767;45.636;11.756;2023-04-06T11:30:00;14.15;;;7.10;;
73136;SDS011;67767;45.636;11.756;2023-04-06T11:32:26;14.60;;;8.13;;
73136;SDS011;67767;45.636;11.756;2023-04-06T11:34:52;13.60;;;8.02;;
73136;SDS011;67767;45.636;11.756;2023-04-06T11:37:18;12.73;;;7.37;;
73136;SDS011;67767;45.636;11.756;2023-04-06T11:42:20;12.95;;;7.65;;
73136;SDS011;67767;45.636;11.756;2023-04-06T11:44:53;14.13;;;8.30;;
73136;SDS011;67767;45.636;11.756;2023-04-06T11:47:20;12.82;;;7.60;;
73136;SDS011;67767;45.636;11.756;2023-04-06T11:49:56;12.07;;;7.93;;
73136;SDS011;67767;45.636;11.756;2023-04-06T11:52:30;12.50;;;7.90;;
73136;SDS011;67767;45.636;11.756;2023-04-06T11:54:56;12.85;;;8.63;;
73136;SDS011;67767;45.636;11.756;2023-04-06T11:57:22;12.95;;;7.78;;
73136;SDS011;67767;45.636;11.756;2023-04-06T11:59:51;13.50;;;8.23;;
73136;SDS011;67767;45.636;11.756;2023-04-06T12:02:17;12.70;;;8.00;;
73136;SDS011;67767;45.636;11.756;2023-04-06T12:04:43;13.25;;;8.10;;
73136;SDS011;67767;45.636;11.756;2023-04-06T12:07:09;12.90;;;7.72;;
73136;SDS011;67767;45.636;11.756;2023-04-06T12:09:35;12.88;;;8.63;;
73136;SDS011;67767;45.636;11.756;2023-04-06T12:12:02;12.23;;;8.18;;
73136;SDS011;67767;45.636;11.756;2023-04-06T12:14:28;15.13;;;8.37;;
73136;SDS011;67767;45.636;11.756;2023-04-06T12:16:55;13.52;;;8.40;;
73136;SDS011;67767;45.636;11.756;2023-04-06T12:19:22;16.42;;;8.85;;
73136;SDS011;67767;45.636;11.756;2023-04-06T12:21:50;13.50;;;8.38;;
73136;SDS011;67767;45.636;11.756;2023-04-06T12:24:17;11.60;;;7.88;;
73136;SDS011;67767;45.636;11.756;2023-04-06T12:26:43;14.70;;;8.17;;
73136;SDS011;67767;45.636;11.756;2023-04-06T12:29:09;14.90;;;8.48;;
73136;SDS011;67767;45.636;11.756;2023-04-06T12:31:36;13.03;;;8.00;;
73136;SDS011;67767;45.636;11.756;2023-04-06T12:34:03;12.63;;;7.75;;
73136;SDS011;67767;45.636;11.756;2023-04-06T12:36:29;12.02;;;8.43;;
73136;SDS011;67767;45.636;11.756;2023-04-06T12:38:56;13.13;;;8.90;;
73136;SDS011;67767;45.636;11.756;2023-04-06T12:41:21;12.50;;;7.63;;
73136;SDS011;67767;45.636;11.756;2023-04-06T12:43:48;13.63;;;8.77;;
73136;SDS011;67767;45.636;11.756;2023-04-06T12:46:14;11.50;;;7.97;;
73136;SDS011;67767;45.636;11.756;2023-04-06T12:48:40;14.83;;;8.50;;
73136;SDS011;67767;45.636;11.756;2023-04-06T12:51:06;12.43;;;8.05;;
73136;SDS011;67767;45.636;11.756;2023-04-06T12:53:32;14.32;;;7.95;;
73136;SDS011;67767;45.636;11.756;2023-04-06T12:56:00;15.00;;;7.77;;
73136;SDS011;67767;45.636;11.756;2023-04-06T12:58:26;12.13;;;8.55;;
73136;SDS011;67767;45.636;11.756;2023-04-06T13:00:53;12.00;;;8.18;;
73136;SDS011;67767;45.636;11.756;2023-04-06T13:03:20;12.88;;;7.68;;
73136;SDS011;67767;45.636;11.756;2023-04-06T13:05:46;14.25;;;8.52;;
73136;SDS011;67767;45.636;11.756;2023-04-06T13:08:14;14.07;;;8.27;;
73136;SDS011;67767;45.636;11.756;2023-04-06T13:10:43;12.98;;;8.88;;
73136;SDS011;67767;45.636;11.756;2023-04-06T13:13:12;13.05;;;8.45;;
73136;SDS011;67767;45.636;11.756;2023-04-06T13:15:42;13.05;;;8.65;;
73136;SDS011;67767;45.636;11.756;2023-04-06T13:18:08;14.27;;;8.33;;
73136;SDS011;67767;45.636;11.756;2023-04-06T13:20:34;15.93;;;9.50;;
73136;SDS011;67767;45.636;11.756;2023-04-06T13:23:00;13.48;;;9.15;;
73136;SDS011;67767;45.636;11.756;2023-04-06T13:25:26;15.25;;;9.52;;
73136;SDS011;67767;45.636;11.756;2023-04-06T13:27:53;18.93;;;9.87;;
73136;SDS011;67767;45.636;11.756;2023-04-06T13:30:19;15.18;;;8.90;;
73136;SDS011;67767;45.636;11.756;2023-04-06T13:32:44;14.13;;;9.50;;
73136;SDS011;67767;45.636;11.756;2023-04-06T13:35:10;14.50;;;9.63;;
73136;SDS011;67767;45.636;11.756;2023-04-06T13:37:36;13.55;;;9.48;;
73136;SDS011;67767;45.636;11.756;2023-04-06T13:40:02;13.00;;;8.67;;
73136;SDS011;67767;45.636;11.756;2023-04-06T13:42:32;15.35;;;9.63;;
73136;SDS011;67767;45.636;11.756;2023-04-06T13:44:59;15.63;;;10.38;;
73136;SDS011;67767;45.636;11.756;2023-04-06T13:47:26;14.85;;;9.73;;
73136;SDS011;67767;45.636;11.756;2023-04-06T13:49:52;14.13;;;10.25;;
73136;SDS011;67767;45.636;11.756;2023-04-06T13:52:19;14.63;;;10.33;;
73136;SDS011;67767;45.636;11.756;2023-04-06T13:54:45;14.57;;;9.65;;
73136;SDS011;67767;45.636;11.756;2023-04-06T13:57:11;14.45;;;10.00;;
73136;SDS011;67767;45.636;11.756;2023-04-06T13:59:37;14.88;;;10.02;;
73136;SDS011;67767;45.636;11.756;2023-04-06T14:02:04;16.65;;;10.00;;
73136;SDS011;67767;45.636;11.756;2023-04-06T14:04:32;13.83;;;9.43;;
73136;SDS011;67767;45.636;11.756;2023-04-06T14:06:58;15.63;;;10.20;;
73136;SDS011;67767;45.636;11.756;2023-04-06T14:09:24;15.40;;;9.65;;
73136;SDS011;67767;45.636;11.756;2023-04-06T14:11:50;17.23;;;9.85;;
73136;SDS011;67767;45.636;11.756;2023-04-06T14:14:16;15.10;;;9.67;;
73136;SDS011;67767;45.636;11.756;2023-04-06T14:16:42;16.83;;;10.98;;
73136;SDS011;67767;45.636;11.756;2023-04-06T14:19:09;15.35;;;9.98;;
73136;SDS011;67767;45.636;11.756;2023-04-06T14:21:39;17.20;;;10.50;;
73136;SDS011;67767;45.636;11.756;2023-04-06T14:24:08;18.47;;;11.13;;
73136;SDS011;67767;45.636;11.756;2023-04-06T14:26:37;29.17;;;11.98;;
73136;SDS011;67767;45.636;11.756;2023-04-06T14:29:04;16.23;;;10.90;;
73136;SDS011;67767;45.636;11.756;2023-04-06T14:31:30;20.35;;;11.05;;